sensor_id;sensor_type;location;lat;lon;timestamp;pressure;altitude;pressure_sealevel;temperature;humidity
31183;BME280;17813;0.000;0.000;2024-02-23T00:02:04;96680.97;;;12.02;63.61
31183;BME280;17813;0.000;0.000;2024-02-23T00:04:32;96670.84;;;11.97;63.40
31183;BME280;17813;0.000;0.000;2024-02-23T00:06:59;96671.84;;;11.96;62.94
31183;BME280;17813;0.000;0.000;2024-02-23T00:09:29;96665.38;;;11.99;62.91
31183;BME280;17813;0.000;0.000;2024-02-23T00:11:57;96651.75;;;12.02;62.74
31183;BME280;17813;0.000;0.000;2024-02-23T00:14:24;96658.53;;;12.04;62.73
31183;BME280;17813;0.000;0.000;2024-02-23T00:16:50;96667.91;;;11.84;62.90
31183;BME280;17813;0.000;0.000;2024-02-23T00:19:17;96666.06;;;11.93;63.34
31183;BME280;17813;0.000;0.000;2024-02-23T00:21:46;96660.59;;;11.86;63.42
31183;BME280;17813;0.000;0.000;2024-02-23T00:24:17;96660.44;;;11.87;63.50
31183;BME280;17813;0.000;0.000;2024-02-23T00:26:46;96681.69;;;11.79;63.64
31183;BME280;17813;0.000;0.000;2024-02-23T00:29:13;96691.50;;;11.79;63.86
31183;BME280;17813;0.000;0.000;2024-02-23T00:31:40;96699.44;;;11.63;63.17
31183;BME280;17813;0.000;0.000;2024-02-23T00:34:09;96725.81;;;11.64;63.49
31183;BME280;17813;0.000;0.000;2024-02-23T00:36:41;96727.66;;;11.55;63.63
31183;BME280;17813;0.000;0.000;2024-02-23T00:39:08;96704.09;;;11.60;63.55
31183;BME280;17813;0.000;0.000;2024-02-23T00:41:36;96698.81;;;11.52;63.33
31183;BME280;17813;0.000;0.000;2024-02-23T00:44:07;96708.75;;;11.50;63.57
31183;BME280;17813;0.000;0.000;2024-02-23T00:46:34;96713.56;;;11.47;63.41
31183;BME280;17813;0.000;0.000;2024-02-23T00:49:07;96709.75;;;11.49;63.23
31183;BME280;17813;0.000;0.000;2024-02-23T00:51:34;96693.84;;;11.49;63.27
31183;BME280;17813;0.000;0.000;2024-02-23T00:54:01;96718.38;;;11.43;63.07
31183;BME280;17813;0.000;0.000;2024-02-23T00:56:29;96731.31;;;11.46;63.06
31183;BME280;17813;0.000;0.000;2024-02-23T00:58:56;96743.25;;;11.50;62.63
31183;BME280;17813;0.000;0.000;2024-02-23T01:01:26;96764.97;;;11.38;62.39
31183;BME280;17813;0.000;0.000;2024-02-23T01:03:58;96782.41;;;11.40;62.29
31183;BME280;17813;0.000;0.000;2024-02-23T01:06:25;96804.63;;;11.47;62.26
31183;BME280;17813;0.000;0.000;2024-02-23T01:08:54;96809.09;;;11.47;61.93
31183;BME280;17813;0.000;0.000;2024-02-23T01:11:20;96817.56;;;11.50;62.34
31183;BME280;17813;0.000;0.000;2024-02-23T01:13:48;96813.56;;;11.46;62.06
31183;BME280;17813;0.000;0.000;2024-02-23T01:16:15;96811.56;;;11.24;61.99
31183;BME280;17813;0.000;0.000;2024-02-23T01:18:43;96816.88;;;11.24;62.04
31183;BME280;17813;0.000;0.000;2024-02-23T01:21:11;96842.06;;;11.20;62.26
31183;BME280;17813;0.000;0.000;2024-02-23T01:23:39;96839.03;;;11.07;62.21
31183;BME280;17813;0.000;0.000;2024-02-23T01:26:06;96861.44;;;11.12;62.35
31183;BME280;17813;0.000;0.000;2024-02-23T01:28:32;96869.03;;;11.07;62.16
31183;BME280;17813;0.000;0.000;2024-02-23T01:30:59;96866.41;;;11.07;62.82
31183;BME280;17813;0.000;0.000;2024-02-23T01:33:27;96887.78;;;11.06;62.38
31183;BME280;17813;0.000;0.000;2024-02-23T01:35:54;96887.94;;;11.04;61.68
31183;BME280;17813;0.000;0.000;2024-02-23T01:38:29;96893.53;;;10.93;61.46
31183;BME280;17813;0.000;0.000;2024-02-23T01:41:00;96891.38;;;10.97;60.78
31183;BME280;17813;0.000;0.000;2024-02-23T01:43:27;96899.69;;;11.02;60.67
31183;BME280;17813;0.000;0.000;2024-02-23T01:45:54;96933.75;;;10.88;59.99
31183;BME280;17813;0.000;0.000;2024-02-23T01:48:21;96937.88;;;10.83;58.17
31183;BME280;17813;0.000;0.000;2024-02-23T01:50:48;96943.13;;;10.75;57.43
31183;BME280;17813;0.000;0.000;2024-02-23T01:53:16;96934.78;;;10.61;56.55
31183;BME280;17813;0.000;0.000;2024-02-23T01:55:46;96948.50;;;10.57;55.96
31183;BME280;17813;0.000;0.000;2024-02-23T01:58:14;96971.09;;;10.43;55.13
31183;BME280;17813;0.000;0.000;2024-02-23T02:00:42;96958.00;;;10.42;55.16
31183;BME280;17813;0.000;0.000;2024-02-23T02:03:08;96962.91;;;10.37;54.49
31183;BME280;17813;0.000;0.000;2024-02-23T02:05:36;96980.03;;;10.24;53.50
31183;BME280;17813;0.000;0.000;2024-02-23T02:08:05;96992.03;;;10.01;52.71
31183;BME280;17813;0.000;0.000;2024-02-23T02:10:31;96988.78;;;10.07;52.93
31183;BME280;17813;0.000;0.000;2024-02-23T02:13:05;97003.97;;;9.87;52.75
31183;BME280;17813;0.000;0.000;2024-02-23T02:15:32;97000.72;;;9.93;53.46
31183;BME280;17813;0.000;0.000;2024-02-23T02:17:59;97004.28;;;9.84;53.18
31183;BME280;17813;0.000;0.000;2024-02-23T02:20:26;97002.63;;;9.83;53.40
31183;BME280;17813;0.000;0.000;2024-02-23T02:22:57;97000.94;;;9.64;53.96
31183;BME280;17813;0.000;0.000;2024-02-23T02:25:24;97015.06;;;9.55;53.80
31183;BME280;17813;0.000;0.000;2024-02-23T02:27:51;97023.44;;;9.51;53.51
31183;BME280;17813;0.000;0.000;2024-02-23T02:30:18;97045.44;;;9.51;53.36
31183;BME280;17813;0.000;0.000;2024-02-23T02:32:46;97043.06;;;9.48;53.52
31183;BME280;17813;0.000;0.000;2024-02-23T02:35:13;97041.00;;;9.42;53.50
31183;BME280;17813;0.000;0.000;2024-02-23T02:37:40;97047.63;;;9.28;53.24
31183;BME280;17813;0.000;0.000;2024-02-23T02:40:08;97057.53;;;9.17;52.75
31183;BME280;17813;0.000;0.000;2024-02-23T02:42:35;97069.34;;;9.22;53.51
31183;BME280;17813;0.000;0.000;2024-02-23T02:45:02;74380.50;;;-142.58;53.51
31183;BME280;17813;0.000;0.000;2024-02-23T02:47:32;97045.69;;;9.21;53.57
31183;BME280;17813;0.000;0.000;2024-02-23T02:49:59;97058.66;;;9.14;53.82
31183;BME280;17813;0.000;0.000;2024-02-23T02:52:26;97074.28;;;9.08;53.98
31183;BME280;17813;0.000;0.000;2024-02-23T02:54:53;97067.22;;;8.98;54.17
31183;BME280;17813;0.000;0.000;2024-02-23T02:57:21;97066.09;;;8.91;54.67
31183;BME280;17813;0.000;0.000;2024-02-23T02:59:47;97059.13;;;9.00;54.55
31183;BME280;17813;0.000;0.000;2024-02-23T03:02:16;97056.50;;;9.00;54.60
31183;BME280;17813;0.000;0.000;2024-02-23T03:04:51;97064.88;;;8.86;54.46
31183;BME280;17813;0.000;0.000;2024-02-23T03:07:23;97074.22;;;8.70;55.42
31183;BME280;17813;0.000;0.000;2024-02-23T03:09:53;97087.69;;;8.77;55.04
31183;BME280;17813;0.000;0.000;2024-02-23T03:12:20;97088.81;;;8.65;55.82
31183;BME280;17813;0.000;0.000;2024-02-23T03:14:48;97102.47;;;8.51;56.09
31183;BME280;17813;0.000;0.000;2024-02-23T03:17:18;97110.78;;;8.65;55.76
31183;BME280;17813;0.000;0.000;2024-02-23T03:19:44;97123.16;;;8.55;56.15
31183;BME280;17813;0.000;0.000;2024-02-23T03:22:11;97118.59;;;8.57;56.07
31183;BME280;17813;0.000;0.000;2024-02-23T03:24:39;97108.44;;;8.53;56.61
31183;BME280;17813;0.000;0.000;2024-02-23T03:27:09;97118.31;;;8.51;56.44
31183;BME280;17813;0.000;0.000;2024-02-23T03:29:37;97123.59;;;8.51;56.81
31183;BME280;17813;0.000;0.000;2024-02-23T03:32:04;97128.31;;;8.47;56.76
31183;BME280;17813;0.000;0.000;2024-02-23T03:34:35;97147.50;;;8.40;57.16
31183;BME280;17813;0.000;0.000;2024-02-23T03:37:02;97150.53;;;8.35;57.80
31183;BME280;17813;0.000;0.000;2024-02-23T03:39:29;97160.28;;;8.34;57.57
31183;BME280;17813;0.000;0.000;2024-02-23T03:41:56;97158.06;;;8.40;57.53
31183;BME280;17813;0.000;0.000;2024-02-23T03:44:23;97154.44;;;8.41;57.63
31183;BME280;17813;0.000;0.000;2024-02-23T03:46:50;97173.19;;;8.37;57.47
31183;BME280;17813;0.000;0.000;2024-02-23T03:49:17;97172.31;;;8.18;58.49
31183;BME280;17813;0.000;0.000;2024-02-23T03:51:44;97164.53;;;8.16;58.23
31183;BME280;17813;0.000;0.000;2024-02-23T03:54:11;97176.88;;;8.16;58.22
31183;BME280;17813;0.000;0.000;2024-02-23T03:56:42;97183.66;;;8.09;58.77
31183;BME280;17813;0.000;0.000;2024-02-23T03:59:10;97175.69;;;7.89;59.28
31183;BME280;17813;0.000;0.000;2024-02-23T04:01:38;97185.97;;;7.92;59.43
31183;BME280;17813;0.000;0.000;2024-02-23T04:04:06;97186.94;;;7.91;59.32
31183;BME280;17813;0.000;0.000;2024-02-23T04:06:36;97196.09;;;7.87;59.49
31183;BME280;17813;0.000;0.000;2024-02-23T04:09:04;97185.25;;;7.81;59.70
31183;BME280;17813;0.000;0.000;2024-02-23T04:11:31;97197.59;;;7.80;59.69
31183;BME280;17813;0.000;0.000;2024-02-23T04:13:58;97194.00;;;7.81;59.71
31183;BME280;17813;0.000;0.000;2024-02-23T04:16:27;97201.13;;;7.69;59.69
31183;BME280;17813;0.000;0.000;2024-02-23T04:18:55;97203.59;;;7.61;59.68
31183;BME280;17813;0.000;0.000;2024-02-23T04:21:23;97206.38;;;7.60;59.66
31183;BME280;17813;0.000;0.000;2024-02-23T04:23:49;97197.34;;;7.62;59.17
31183;BME280;17813;0.000;0.000;2024-02-23T04:26:17;97195.81;;;7.60;58.56
31183;BME280;17813;0.000;0.000;2024-02-23T04:28:44;97209.13;;;7.58;58.46
31183;BME280;17813;0.000;0.000;2024-02-23T04:31:11;97214.22;;;7.50;58.90
31183;BME280;17813;0.000;0.000;2024-02-23T04:33:38;97225.03;;;7.47;58.78
31183;BME280;17813;0.000;0.000;2024-02-23T04:36:07;97220.06;;;7.54;58.72
31183;BME280;17813;0.000;0.000;2024-02-23T04:38:34;97228.13;;;7.52;58.52
31183;BME280;17813;0.000;0.000;2024-02-23T04:41:03;97235.28;;;7.40;58.49
31183;BME280;17813;0.000;0.000;2024-02-23T04:43:33;97237.47;;;7.35;58.46
31183;BME280;17813;0.000;0.000;2024-02-23T04:46:00;97241.00;;;7.46;58.61
31183;BME280;17813;0.000;0.000;2024-02-23T04:48:33;97244.59;;;7.45;58.34
31183;BME280;17813;0.000;0.000;2024-02-23T04:51:02;97236.22;;;7.39;58.69
31183;BME280;17813;0.000;0.000;2024-02-23T04:53:29;97237.06;;;7.40;58.62
31183;BME280;17813;0.000;0.000;2024-02-23T04:55:57;97238.69;;;7.31;58.84
31183;BME280;17813;0.000;0.000;2024-02-23T04:58:24;97235.72;;;7.25;59.31
31183;BME280;17813;0.000;0.000;2024-02-23T05:00:51;97229.69;;;7.34;59.01
31183;BME280;17813;0.000;0.000;2024-02-23T05:03:17;97229.81;;;7.32;59.64
31183;BME280;17813;0.000;0.000;2024-02-23T05:05:44;97229.09;;;7.30;59.88
31183;BME280;17813;0.000;0.000;2024-02-23T05:08:11;97245.94;;;7.39;59.46
31183;BME280;17813;0.000;0.000;2024-02-23T05:10:38;97249.53;;;7.38;59.85
31183;BME280;17813;0.000;0.000;2024-02-23T05:13:05;97259.13;;;7.39;59.57
31183;BME280;17813;0.000;0.000;2024-02-23T05:15:32;97261.75;;;7.39;59.81
31183;BME280;17813;0.000;0.000;2024-02-23T05:17:59;97263.69;;;7.37;59.99
31183;BME280;17813;0.000;0.000;2024-02-23T05:20:26;97271.72;;;7.35;59.78
31183;BME280;17813;0.000;0.000;2024-02-23T05:22:53;97299.44;;;7.30;60.02
31183;BME280;17813;0.000;0.000;2024-02-23T05:25:21;97312.75;;;7.28;60.17
31183;BME280;17813;0.000;0.000;2024-02-23T05:27:48;97306.44;;;7.20;60.46
31183;BME280;17813;0.000;0.000;2024-02-23T05:30:15;97304.31;;;7.14;60.76
31183;BME280;17813;0.000;0.000;2024-02-23T05:32:42;97329.44;;;7.18;60.44
31183;BME280;17813;0.000;0.000;2024-02-23T05:35:09;97326.69;;;7.19;60.62
31183;BME280;17813;0.000;0.000;2024-02-23T05:37:36;97327.78;;;7.17;60.48
31183;BME280;17813;0.000;0.000;2024-02-23T05:40:04;97335.59;;;7.07;61.13
31183;BME280;17813;0.000;0.000;2024-02-23T05:42:40;97317.75;;;7.10;60.63
31183;BME280;17813;0.000;0.000;2024-02-23T05:45:09;97332.84;;;7.08;60.56
31183;BME280;17813;0.000;0.000;2024-02-23T05:47:38;97352.00;;;7.10;60.82
31183;BME280;17813;0.000;0.000;2024-02-23T05:50:05;97358.94;;;7.12;61.02
31183;BME280;17813;0.000;0.000;2024-02-23T05:52:33;97350.91;;;7.13;61.00
31183;BME280;17813;0.000;0.000;2024-02-23T05:55:00;97348.53;;;7.10;60.71
31183;BME280;17813;0.000;0.000;2024-02-23T05:57:28;97361.94;;;7.07;60.79
31183;BME280;17813;0.000;0.000;2024-02-23T05:59:55;97363.03;;;7.04;61.28
31183;BME280;17813;0.000;0.000;2024-02-23T06:02:24;97367.47;;;7.04;61.72
31183;BME280;17813;0.000;0.000;2024-02-23T06:04:50;97358.34;;;7.08;61.33
31183;BME280;17813;0.000;0.000;2024-02-23T06:07:17;97363.50;;;7.09;61.15
31183;BME280;17813;0.000;0.000;2024-02-23T06:09:44;97365.75;;;7.14;60.66
31183;BME280;17813;0.000;0.000;2024-02-23T06:12:11;97375.22;;;7.17;60.69
31183;BME280;17813;0.000;0.000;2024-02-23T06:14:38;97375.09;;;7.18;60.63
31183;BME280;17813;0.000;0.000;2024-02-23T06:17:06;97377.09;;;7.26;60.58
31183;BME280;17813;0.000;0.000;2024-02-23T06:19:35;97375.91;;;7.30;60.63
31183;BME280;17813;0.000;0.000;2024-02-23T06:22:02;97372.28;;;7.31;60.46
31183;BME280;17813;0.000;0.000;2024-02-23T06:28:17;97381.44;;;7.16;61.14
31183;BME280;17813;0.000;0.000;2024-02-23T06:30:53;97379.88;;;7.24;61.11
31183;BME280;17813;0.000;0.000;2024-02-23T06:33:20;97386.56;;;7.28;60.75
31183;BME280;17813;0.000;0.000;2024-02-23T06:35:47;97394.09;;;7.33;60.89
31183;BME280;17813;0.000;0.000;2024-02-23T06:38:14;97401.16;;;7.32;60.83
31183;BME280;17813;0.000;0.000;2024-02-23T06:40:41;97408.72;;;7.37;60.88
31183;BME280;17813;0.000;0.000;2024-02-23T06:43:08;97385.69;;;7.39;60.93
31183;BME280;17813;0.000;0.000;2024-02-23T06:45:35;97394.56;;;7.38;61.20
31183;BME280;17813;0.000;0.000;2024-02-23T06:48:02;97405.09;;;7.38;61.14
31183;BME280;17813;0.000;0.000;2024-02-23T06:50:30;97403.06;;;7.41;61.08
31183;BME280;17813;0.000;0.000;2024-02-23T06:52:57;97409.16;;;7.42;60.95
31183;BME280;17813;0.000;0.000;2024-02-23T06:55:24;97435.28;;;7.45;60.92
31183;BME280;17813;0.000;0.000;2024-02-23T06:57:51;97452.78;;;7.46;60.88
31183;BME280;17813;0.000;0.000;2024-02-23T07:00:19;97451.06;;;7.56;60.50
31183;BME280;17813;0.000;0.000;2024-02-23T07:02:47;97447.34;;;7.59;60.45
31183;BME280;17813;0.000;0.000;2024-02-23T07:05:14;97461.38;;;7.59;60.80
31183;BME280;17813;0.000;0.000;2024-02-23T07:07:41;97458.03;;;7.57;60.83
31183;BME280;17813;0.000;0.000;2024-02-23T07:10:08;97478.16;;;7.58;60.79
31183;BME280;17813;0.000;0.000;2024-02-23T07:12:37;97482.09;;;7.64;60.84
31183;BME280;17813;0.000;0.000;2024-02-23T07:15:04;97492.41;;;7.67;60.74
31183;BME280;17813;0.000;0.000;2024-02-23T07:17:31;97487.97;;;7.67;60.83
31183;BME280;17813;0.000;0.000;2024-02-23T07:19:58;97482.31;;;7.72;60.68
31183;BME280;17813;0.000;0.000;2024-02-23T07:22:32;74888.81;;;-142.58;60.68
31183;BME280;17813;0.000;0.000;2024-02-23T07:24:59;97515.28;;;7.78;60.64
31183;BME280;17813;0.000;0.000;2024-02-23T07:27:30;97532.81;;;7.67;60.44
31183;BME280;17813;0.000;0.000;2024-02-23T07:29:58;97530.06;;;7.69;60.57
31183;BME280;17813;0.000;0.000;2024-02-23T07:36:24;97519.66;;;7.56;61.05
31183;BME280;17813;0.000;0.000;2024-02-23T08:09:15;97531.72;;;7.70;59.46
31183;BME280;17813;0.000;0.000;2024-02-23T11:01:11;97642.38;;;9.22;47.78
31183;BME280;17813;0.000;0.000;2024-02-23T12:14:19;97618.91;;;9.68;49.20
